Time;durP1;ratioP1;P1;durP2;ratioP2;P2;SDS_P1;SDS_P2;PMS_P1;PMS_P2;Temp;Humidity;BMP_temperature;BMP_pressure;BME280_temperature;BME280_humidity;BME280_pressure;Samples;Min_cycle;Max_cycle;Signal;HPM_P1;HPM_P2
2023/12/04 00:00:42;;;;;;;38.72;20.27;;;;;;;;;;5073687;28;20044;-69
2023/12/04 00:03:08;;;;;;;33.97;19.45;;;;;;;;;;5055763;28;20055;-69
2023/12/04 00:05:34;;;;;;;34.45;19.83;;;;;;;;;;5056105;28;20075;-69
2023/12/04 00:08:00;;;;;;;31.50;18.58;;;;;;;;;;5056142;28;20101;-69
2023/12/04 00:10:26;;;;;;;34.30;18.25;;;;;;;;;;5055741;28;20044;-69
2023/12/04 00:12:51;;;;;;;37.33;20.05;;;4.50;26.40;;;;;;5055897;28;20465;-69
2023/12/04 00:15:18;;;;;;;35.38;20.27;;;;;;;;;;5039434;28;20032;-69
2023/12/04 00:17:43;;;;;;;32.80;19.20;;;4.40;25.80;;;;;;5055649;28;20159;-69
2023/12/04 00:20:09;;;;;;;36.50;19.88;;;4.60;26.00;;;;;;5055288;28;20123;-69
2023/12/04 00:22:36;;;;;;;36.72;18.85;;;;;;;;;;5055452;28;20040;-68
2023/12/04 00:25:03;;;;;;;32.60;18.88;;;4.50;26.00;;;;;;5055370;28;20041;-69
2023/12/04 00:27:29;;;;;;;30.58;18.70;;;;;;;;;;5055666;28;20235;-69
2023/12/04 00:29:55;;;;;;;37.10;20.27;;;;;;;;;;5055149;28;20040;-69
2023/12/04 00:32:21;;;;;;;30.27;18.17;;;;;;;;;;5055253;28;20123;-69
2023/12/04 00:34:47;;;;;;;31.08;18.67;;;;;;;;;;5055718;28;20127;-67
2023/12/04 00:37:13;;;;;;;33.75;20.48;;;;;;;;;;5055046;28;20051;-69
2023/12/04 00:39:39;;;;;;;34.28;18.98;;;;;;;;;;5055277;28;20044;-69
2023/12/04 00:42:05;;;;;;;32.90;20.02;;;;;;;;;;5038552;28;20040;-69
2023/12/04 00:44:31;;;;;;;30.13;17.75;;;;;;;;;;5055150;28;20496;-69
2023/12/04 00:46:57;;;;;;;31.98;17.60;;;;;;;;;;5038293;28;20131;-69
2023/12/04 00:49:23;;;;;;;35.97;20.25;;;;;;;;;;5038136;28;20126;-69
2023/12/04 00:51:49;;;;;;;30.42;17.92;;;4.50;27.60;;;;;;5054813;28;20102;-69
2023/12/04 00:54:15;;;;;;;31.02;18.02;;;;;;;;;;5055090;28;20033;-69
2023/12/04 00:56:41;;;;;;;27.50;16.80;;;4.60;27.40;;;;;;5054851;28;20089;-69
2023/12/04 00:59:10;;;;;;;29.80;17.65;;;4.70;24.90;;;;;;5054479;28;20486;-69
2023/12/04 01:01:37;;;;;;;29.80;18.40;;;4.50;24.90;;;;;;5054988;28;20044;-68
2023/12/04 01:04:03;;;;;;;29.30;17.80;;;;;;;;;;5055041;28;20478;-69
2023/12/04 01:06:29;;;;;;;29.77;18.00;;;4.70;25.10;;;;;;5037999;28;20132;-69
2023/12/04 01:08:55;;;;;;;28.80;16.80;;;4.30;25.10;;;;;;5053590;28;20051;-69
2023/12/04 01:11:21;;;;;;;32.90;18.70;;;;;;;;;;5054259;28;20066;-69
2023/12/04 01:13:48;;;;;;;29.00;17.35;;;;;;;;;;5054377;28;20062;-69
2023/12/04 01:16:14;;;;;;;35.15;19.42;;;;;;;;;;5054352;28;20119;-69
2023/12/04 01:18:40;;;;;;;26.60;16.60;;;4.50;26.80;;;;;;5054479;28;20063;-69
2023/12/04 01:21:08;;;;;;;28.13;17.33;;;4.50;26.80;;;;;;5037706;28;20040;-69
2023/12/04 01:23:34;;;;;;;30.63;18.50;;;4.60;26.90;;;;;;5054566;28;20442;-69
2023/12/04 01:26:00;;;;;;;30.35;18.60;;;;;;;;;;5054692;28;20040;-69
2023/12/04 01:28:26;;;;;;;28.38;17.77;;;4.60;27.30;;;;;;5054277;28;20036;-69
2023/12/04 01:30:52;;;;;;;30.27;18.33;;;;;;;;;;5054059;28;20519;-69
2023/12/04 01:33:18;;;;;;;30.27;18.20;;;;;;;;;;5054088;28;20496;-69
2023/12/04 01:35:44;;;;;;;31.08;17.65;;;;;;;;;;5054167;28;20043;-68
2023/12/04 01:38:10;;;;;;;30.50;18.05;;;;;;;;;;5053603;28;20507;-69
2023/12/04 01:40:35;;;;;;;30.67;18.15;;;4.70;26.00;;;;;;5053913;28;20123;-71
2023/12/04 01:43:01;;;;;;;31.33;18.17;;;4.70;26.20;;;;;;5053795;28;20522;-69
2023/12/04 01:45:27;;;;;;;29.42;17.45;;;;;;;;;;5053923;28;20123;-69
2023/12/04 01:47:53;;;;;;;28.90;17.75;;;4.60;25.60;;;;;;5054136;28;20152;-69
2023/12/04 01:50:19;;;;;;;32.10;17.83;;;;;;;;;;5053623;28;20044;-67
2023/12/04 01:52:47;;;;;;;28.88;17.67;;;;;;;;;;5053817;28;20440;-68
2023/12/04 01:55:13;;;;;;;28.60;16.50;;;;;;;;;;5054227;28;20102;-69
2023/12/04 01:57:39;;;;;;;33.05;19.10;;;;;;;;;;5053615;28;20041;-69
2023/12/04 02:00:11;;;;;;;29.85;17.85;;;;;;;;;;5053851;28;20086;-69
2023/12/04 02:02:37;;;;;;;30.08;18.45;;;;;;;;;;5053761;28;20055;-69
2023/12/04 02:05:03;;;;;;;32.50;18.08;;;;;;;;;;5053851;28;20037;-69
2023/12/04 02:07:29;;;;;;;27.20;17.60;;;;;;;;;;5037064;28;20045;-69
2023/12/04 02:09:56;;;;;;;30.88;18.40;;;;;;;;;;5053250;28;20515;-69
2023/12/04 02:12:21;;;;;;;35.88;20.25;;;;;;;;;;5053362;28;20037;-69
2023/12/04 02:14:47;;;;;;;31.63;18.27;;;;;;;;;;5053442;28;20033;-69
2023/12/04 02:17:14;;;;;;;32.50;19.65;;;;;;;;;;5053428;28;20056;-69
2023/12/04 02:19:40;;;;;;;30.40;18.45;;;;;;;;;;5053302;28;20036;-69
2023/12/04 02:22:06;;;;;;;30.55;18.75;;;;;;;;;;5053214;28;20040;-69
2023/12/04 02:24:34;;;;;;;32.42;18.40;;;;;;;;;;5036708;28;20047;-69
2023/12/04 02:27:09;;;;;;;28.92;17.30;;;4.60;21.40;;;;;;5053367;28;20102;-69
2023/12/04 02:29:43;;;;;;;33.70;18.67;;;4.70;22.60;;;;;;5053225;28;20040;-69
2023/12/04 02:32:10;;;;;;;34.40;19.40;;;;;;;;;;5071391;28;20048;-69
2023/12/04 02:34:37;;;;;;;35.25;20.30;;;;;;;;;;5053510;28;20086;-67
2023/12/04 02:37:03;;;;;;;37.90;20.20;;;;;;;;;;5053407;28;20037;-69
2023/12/04 02:39:29;;;;;;;36.15;19.15;;;;;;;;;;5053072;28;20048;-69
2023/12/04 02:41:55;;;;;;;37.75;20.63;;;;;;;;;;5053393;28;20052;-69
2023/12/04 02:44:21;;;;;;;34.65;19.95;;;;;;;;;;5053163;28;20622;-69
2023/12/04 02:46:47;;;;;;;33.97;19.85;;;;;;;;;;5053508;28;20196;-69
2023/12/04 02:49:13;;;;;;;38.08;20.77;;;;;;;;;;5053250;28;20765;-69
2023/12/04 02:51:41;;;;;;;41.42;21.48;;;4.60;22.20;;;;;;5052964;28;20123;-69
2023/12/04 02:54:06;;;;;;;36.42;19.73;;;4.70;23.80;;;;;;5053134;28;20051;-68
2023/12/04 02:56:32;;;;;;;34.17;19.27;;;4.60;23.90;;;;;;5053112;28;20052;-69
2023/12/04 02:58:58;;;;;;;39.28;20.73;;;;;;;;;;5053198;28;20048;-69
2023/12/04 03:01:24;;;;;;;35.78;19.13;;;;;;;;;;5053110;28;20040;-68
2023/12/04 03:03:50;;;;;;;42.72;21.77;;;;;;;;;;5036695;28;20071;-69
2023/12/04 03:06:16;;;;;;;36.45;19.50;;;;;;;;;;5053185;28;20054;-69
2023/12/04 03:08:42;;;;;;;40.65;21.67;;;4.70;20.30;;;;;;5070962;28;20045;-68
2023/12/04 03:11:08;;;;;;;37.78;20.55;;;;;;;;;;5077838;22;20037;-72
2023/12/04 03:13:34;;;;;;;35.55;19.30;;;;;;;;;;5053168;28;20046;-72
2023/12/04 03:16:00;;;;;;;33.45;20.27;;;;;;;;;;5069711;28;20075;-71
2023/12/04 03:18:28;;;;;;;34.85;19.38;;;;;;;;;;5069555;28;20040;-70
2023/12/04 03:20:54;;;;;;;35.50;19.17;;;;;;;;;;5053099;28;20391;-69
2023/12/04 03:23:20;;;;;;;34.05;20.20;;;5.00;23.30;;;;;;5069807;28;20472;-71
2023/12/04 03:25:46;;;;;;;35.17;19.90;;;;;;;;;;5052928;28;20068;-73
2023/12/04 03:28:13;;;;;;;37.55;20.70;;;4.70;22.40;;;;;;5069886;28;20400;-74
2023/12/04 03:30:39;;;;;;;30.55;17.30;;;;;;;;;;5069538;28;20048;-73
2023/12/04 03:33:05;;;;;;;31.73;18.75;;;;;;;;;;5070988;28;20504;-74
2023/12/04 03:35:30;;;;;;;35.50;19.73;;;4.70;23.10;;;;;;5073159;28;20052;-74
2023/12/04 03:37:56;;;;;;;35.42;18.70;;;;;;;;;;5056429;28;20101;-74
2023/12/04 03:40:22;;;;;;;34.05;19.13;;;;;;;;;;5072817;28;20036;-74
2023/12/04 03:42:48;;;;;;;33.78;18.52;;;;;;;;;;5073203;28;20093;-73
2023/12/04 03:45:14;;;;;;;35.03;18.65;;;;;;;;;;5073125;28;20051;-73
2023/12/04 03:47:40;;;;;;;34.22;19.45;;;;;;;;;;5056304;28;20411;-73
2023/12/04 03:50:06;;;;;;;37.63;19.23;;;;;;;;;;5056013;28;20043;-74
2023/12/04 03:52:32;;;;;;;31.02;17.55;;;;;;;;;;5072857;28;20129;-73
2023/12/04 03:54:58;;;;;;;31.50;18.00;;;;;;;;;;5072930;28;20083;-74
2023/12/04 03:57:24;;;;;;;35.08;18.30;;;;;;;;;;5072799;28;20051;-73
2023/12/04 03:59:50;;;;;;;33.40;18.50;;;;;;;;;;5072574;28;20561;-73
2023/12/04 04:02:16;;;;;;;32.00;18.90;;;;;;;;;;5072608;28;20071;-73
2023/12/04 04:04:42;;;;;;;32.53;17.25;;;4.70;22.20;;;;;;5073118;28;20415;-73
2023/12/04 04:07:08;;;;;;;33.08;18.48;;;;;;;;;;5072520;28;20120;-74
2023/12/04 04:09:33;;;;;;;31.88;16.70;;;;;;;;;;5072820;28;20044;-73
2023/12/04 04:11:59;;;;;;;30.75;17.38;;;4.80;22.60;;;;;;5072443;28;20047;-70
2023/12/04 04:14:25;;;;;;;33.60;18.15;;;;;;;;;;5072431;28;20041;-73
2023/12/04 04:16:51;;;;;;;32.45;17.45;;;;;;;;;;5072328;28;20040;-74
2023/12/04 04:19:17;;;;;;;32.50;17.40;;;;;;;;;;5055408;28;20527;-73
2023/12/04 04:21:43;;;;;;;34.22;17.35;;;;;;;;;;5055582;28;20044;-73
2023/12/04 04:24:09;;;;;;;31.98;16.83;;;;;;;;;;5072174;28;20485;-73
2023/12/04 04:26:34;;;;;;;28.88;16.83;;;4.60;21.00;;;;;;5055488;28;20037;-73
2023/12/04 04:29:00;;;;;;;31.83;17.42;;;;;;;;;;5072040;28;20087;-73
2023/12/04 04:31:26;;;;;;;30.48;17.13;;;4.70;21.30;;;;;;5071975;28;20045;-73
2023/12/04 04:33:52;;;;;;;34.33;17.42;;;;;;;;;;5071934;28;20076;-74
2023/12/04 04:36:18;;;;;;;34.65;16.85;;;;;;;;;;5055295;28;20040;-73
2023/12/04 04:38:44;;;;;;;32.72;17.17;;;;;;;;;;5055345;28;20291;-73
2023/12/04 04:41:16;;;;;;;30.88;16.60;;;;;;;;;;5071763;28;20049;-74
2023/12/04 04:43:42;;;;;;;27.73;15.60;;;;;;;;;;5071593;28;20069;-73
2023/12/04 04:46:08;;;;;;;30.85;16.73;;;;;;;;;;5055366;28;20036;-73
2023/12/04 04:48:34;;;;;;;29.80;16.73;;;;;;;;;;5055048;28;20098;-72
2023/12/04 04:51:00;;;;;;;32.88;18.17;;;;;;;;;;5071649;28;20516;-71
2023/12/04 04:53:26;;;;;;;31.70;16.02;;;;;;;;;;5071487;28;20036;-72
2023/12/04 04:55:52;;;;;;;31.65;16.55;;;;;;;;;;5071594;28;20137;-71
2023/12/04 04:58:18;;;;;;;28.42;16.23;;;;;;;;;;5071396;28;20091;-72
2023/12/04 05:00:44;;;;;;;32.88;17.33;;;4.80;17.90;;;;;;5071654;28;20048;-72
2023/12/04 05:03:10;;;;;;;32.35;17.35;;;;;;;;;;5071315;28;20040;-72
2023/12/04 05:05:36;;;;;;;29.08;15.75;;;5.00;17.40;;;;;;5071355;28;20403;-72
2023/12/04 05:08:02;;;;;;;31.75;17.25;;;;;;;;;;5071221;28;20037;-71
2023/12/04 05:10:28;;;;;;;29.52;16.17;;;;;;;;;;5071229;28;20561;-72
2023/12/04 05:12:54;;;;;;;30.42;16.08;;;;;;;;;;5071009;28;20036;-71
2023/12/04 05:15:20;;;;;;;27.10;16.27;;;;;;;;;;5071191;28;20044;-72
2023/12/04 05:17:47;;;;;;;28.15;14.80;;;;;;;;;;5071225;28;20040;-72
2023/12/04 05:20:13;;;;;;;27.35;15.50;;;;;;;;;;5070823;28;20093;-72
2023/12/04 05:22:39;;;;;;;29.20;16.50;;;;;;;;;;5070900;28;20036;-72
2023/12/04 05:25:05;;;;;;;32.03;15.93;;;;;;;;;;5070916;28;20496;-72
2023/12/04 05:27:31;;;;;;;29.58;16.27;;;;;;;;;;5071164;28;20066;-72
2023/12/04 05:29:57;;;;;;;31.30;16.25;;;;;;;;;;5070947;28;20495;-72
2023/12/04 05:32:22;;;;;;;28.33;16.17;;;4.80;13.70;;;;;;5053937;28;20037;-72
2023/12/04 05:34:48;;;;;;;28.00;15.85;;;;;;;;;;5070956;28;20389;-71
2023/12/04 05:37:14;;;;;;;31.52;15.43;;;;;;;;;;5054367;28;20235;-72
2023/12/04 05:39:41;;;;;;;27.15;15.23;;;5.00;12.30;;;;;;5070420;28;20178;-72
2023/12/04 05:42:08;;;;;;;25.63;14.13;;;;;;;;;;5070597;28;20500;-72
2023/12/04 05:44:34;;;;;;;31.50;16.02;;;4.80;13.50;;;;;;5054013;28;20036;-72
2023/12/04 05:47:00;;;;;;;28.73;17.00;;;4.90;13.70;;;;;;5070506;28;20420;-72
2023/12/04 05:49:26;;;;;;;27.00;13.88;;;;;;;;;;5054026;28;20047;-72
2023/12/04 05:51:52;;;;;;;28.33;15.70;;;;;;;;;;5070348;28;20040;-72
2023/12/04 05:54:18;;;;;;;28.15;15.57;;;;;;;;;;5070381;28;20040;-71
2023/12/04 05:56:44;;;;;;;28.98;15.63;;;;;;;;;;5053501;28;20128;-72
2023/12/04 05:59:10;;;;;;;28.08;16.35;;;;;;;;;;5070199;28;20072;-72
2023/12/04 06:01:36;;;;;;;29.13;15.25;;;;;;;;;;5070223;28;20535;-72
2023/12/04 06:04:02;;;;;;;25.73;14.90;;;;;;;;;;5070258;28;20040;-72
2023/12/04 06:06:28;;;;;;;26.35;15.07;;;;;;;;;;5070353;28;20074;-72
2023/12/04 06:08:53;;;;;;;25.55;14.23;;;4.80;10.60;;;;;;5070116;28;20071;-72
2023/12/04 06:11:19;;;;;;;25.50;14.35;;;5.00;10.70;;;;;;5070044;28;20082;-72
2023/12/04 06:13:45;;;;;;;26.27;14.13;;;;;;;;;;5053507;28;20040;-72
2023/12/04 06:16:11;;;;;;;24.83;14.60;;;;;;;;;;5071346;28;20134;-72
2023/12/04 06:18:37;;;;;;;25.10;13.95;;;;;;;;;;5070090;28;20403;-72
2023/12/04 06:21:03;;;;;;;25.30;14.88;;;4.80;6.20;;;;;;5070154;28;20127;-72
2023/12/04 06:23:29;;;;;;;25.05;14.40;;;4.90;7.20;;;;;;5070395;28;20048;-72
2023/12/04 06:25:55;;;;;;;25.13;13.35;;;;;;;;;;5070087;28;20565;-72
2023/12/04 06:28:21;;;;;;;27.13;14.88;;;;;;;;;;5053169;28;20045;-72
2023/12/04 06:30:47;;;;;;;26.15;13.98;;;;;;;;;;5070206;28;20431;-72
2023/12/04 06:33:14;;;;;;;24.30;14.25;;;;;;;;;;5053253;28;20408;-72
2023/12/04 06:35:41;;;;;;;28.35;15.40;;;;;;;;;;5053320;28;20041;-70
2023/12/04 06:38:07;;;;;;;25.10;13.73;;;;;;;;;;5069561;28;20523;-69
2023/12/04 06:40:33;;;;;;;23.52;14.05;;;;;;;;;;5069855;28;20070;-72
2023/12/04 06:43:00;;;;;;;26.98;14.15;;;;;;;;;;5070145;28;20044;-72
2023/12/04 06:45:27;;;;;;;29.50;14.73;;;;;;;;;;5070249;28;20044;-72
2023/12/04 06:47:54;;;;;;;22.38;13.15;;;;;;;;;;5053587;28;20450;-72
2023/12/04 06:50:20;;;;;;;23.00;13.43;;;;;;;;;;5069698;28;20094;-73
2023/12/04 06:52:46;;;;;;;21.65;12.52;;;;;;;;;;5069657;28;20119;-72
2023/12/04 06:55:13;;;;;;;25.10;13.05;;;4.80;4.20;;;;;;5070184;28;20369;-70
2023/12/04 06:57:39;;;;;;;23.20;13.00;;;;;;;;;;5070047;28;20098;-73
2023/12/04 07:00:07;;;;;;;23.40;13.55;;;4.90;4.80;;;;;;5069893;28;20040;-72
2023/12/04 07:02:33;;;;;;;25.85;13.77;;;;;;;;;;5069750;28;20036;-72
2023/12/04 07:04:59;;;;;;;25.63;12.98;;;;;;;;;;5070004;28;20048;-72
2023/12/04 07:07:25;;;;;;;22.55;12.35;;;;;;;;;;5071828;28;20553;-72
2023/12/04 07:09:51;;;;;;;20.38;12.32;;;;;;;;;;5073386;28;20044;-72
2023/12/04 07:12:17;;;;;;;21.27;12.68;;;;;;;;;;5073207;28;20048;-72
2023/12/04 07:14:43;;;;;;;23.65;13.50;;;;;;;;;;5073693;28;20105;-70
2023/12/04 07:17:11;;;;;;;20.73;11.77;;;;;;;;;;5073412;28;20047;-72
2023/12/04 07:19:37;;;;;;;21.73;11.98;;;;;;;;;;5056563;28;20511;-72
2023/12/04 07:22:03;;;;;;;19.60;11.38;;;;;;;;;;5073233;28;20040;-72
2023/12/04 07:24:29;;;;;;;20.63;11.85;;;;;;;;;;5073760;28;20404;-72
2023/12/04 07:26:55;;;;;;;23.75;13.63;;;;;;;;;;5073202;28;20475;-73
2023/12/04 07:29:21;;;;;;;22.90;12.52;;;;;;;;;;5073313;28;20049;-72
2023/12/04 07:31:47;;;;;;;19.73;11.60;;;;;;;;;;5073285;28;20032;-72
2023/12/04 07:34:13;;;;;;;20.95;11.95;;;4.90;1.50;;;;;;5073079;28;20127;-72
2023/12/04 07:36:39;;;;;;;17.85;11.18;;;;;;;;;;5056185;28;20412;-72
2023/12/04 07:39:06;;;;;;;22.13;12.00;;;4.90;1.00;;;;;;5056174;28;20086;-72
2023/12/04 07:41:32;;;;;;;20.92;11.40;;;;;;;;;;5072970;28;20044;-72
2023/12/04 07:43:58;;;;;;;21.63;11.23;;;;;;;;;;5072854;28;20504;-72
2023/12/04 07:46:25;;;;;;;19.27;11.63;;;;;;;;;;5073110;28;20055;-72
2023/12/04 07:48:51;;;;;;;18.02;10.70;;;;;;;;;;5056215;28;20376;-72
2023/12/04 07:51:17;;;;;;;18.27;10.93;;;4.90;1.00;;;;;;5055833;28;20085;-72
2023/12/04 07:53:43;;;;;;;21.48;11.73;;;;;;;;;;5073023;28;20048;-72
2023/12/04 07:56:09;;;;;;;18.27;10.25;;;;;;;;;;5072717;28;20036;-70
2023/12/04 07:58:35;;;;;;;17.98;10.00;;;;;;;;;;5073282;28;20044;-72
2023/12/04 08:01:01;;;;;;;16.80;10.43;;;;;;;;;;5056404;28;20040;-72
2023/12/04 08:03:27;;;;;;;16.50;9.95;;;;;;;;;;5073065;28;20045;-72
2023/12/04 08:05:53;;;;;;;18.40;10.80;;;;;;;;;;5089782;28;20454;-73
2023/12/04 08:08:19;;;;;;;17.15;9.77;;;;;;;;;;5072303;28;20123;-72
2023/12/04 08:10:45;;;;;;;17.50;10.32;;;;;;;;;;5089135;28;20040;-72
2023/12/04 08:13:11;;;;;;;15.82;9.55;;;;;;;;;;5072505;28;20120;-72
2023/12/04 08:15:37;;;;;;;18.25;9.80;;;5.00;1.00;;;;;;5072524;28;20507;-71
2023/12/04 08:18:03;;;;;;;16.63;9.52;;;;;;;;;;5088783;28;20123;-73
2023/12/04 08:20:29;;;;;;;16.92;10.20;;;;;;;;;;5088858;28;20389;-72
2023/12/04 08:22:55;;;;;;;15.13;8.93;;;;;;;;;;5055900;28;20075;-73
2023/12/04 08:25:21;;;;;;;15.18;9.60;;;;;;;;;;5089202;28;20397;-73
2023/12/04 08:27:49;;;;;;;16.92;9.65;;;5.10;1.00;;;;;;5089298;28;20037;-73
2023/12/04 08:30:15;;;;;;;16.83;9.40;;;5.20;1.00;;;;;;5088741;28;20119;-73
2023/12/04 08:32:41;;;;;;;16.88;9.45;;;;;;;;;;5088921;28;20115;-72
2023/12/04 08:35:07;;;;;;;15.55;8.82;;;;;;;;;;5071946;28;20040;-72
2023/12/04 08:37:33;;;;;;;16.92;9.35;;;;;;;;;;5088881;28;20036;-72
2023/12/04 08:39:59;;;;;;;15.50;9.30;;;;;;;;;;5072002;28;20067;-72
2023/12/04 08:42:26;;;;;;;15.63;8.85;;;;;;;;;;5088824;28;20080;-73
2023/12/04 08:44:51;;;;;;;15.88;8.80;;;5.30;1.00;;;;;;5088661;28;20176;-73
2023/12/04 08:47:17;;;;;;;15.85;9.73;;;;;;;;;;5088993;28;20047;-73
2023/12/04 08:49:44;;;;;;;16.70;8.68;;;;;;;;;;5088369;28;20036;-72
2023/12/04 08:52:10;;;;;;;14.65;8.40;;;5.20;1.00;;;;;;5088253;28;20082;-73
2023/12/04 08:54:40;;;;;;;14.07;8.38;;;5.40;1.00;;;;;;5088293;28;20047;-72
2023/12/04 08:57:06;;;;;;;15.77;7.90;;;5.30;1.00;;;;;;5088750;28;20044;-73
2023/12/04 08:59:32;;;;;;;13.63;8.38;;;;;;;;;;5088223;28;20043;-73
2023/12/04 09:01:58;;;;;;;14.30;8.38;;;;;;;;;;5088312;28;20062;-73
2023/12/04 09:04:24;;;;;;;13.20;7.57;;;;;;;;;;5088295;28;20109;-72
2023/12/04 09:06:50;;;;;;;15.73;8.32;;;;;;;;;;5071508;28;20131;-73
2023/12/04 09:09:16;;;;;;;17.15;9.18;;;;;;;;;;5071202;28;20040;-73
2023/12/04 09:11:43;;;;;;;15.07;8.25;;;5.20;1.00;;;;;;5111627;22;20054;-71
2023/12/04 09:14:09;;;;;;;12.50;8.00;;;5.30;1.00;;;;;;5072536;28;20040;-70
2023/12/04 09:16:35;;;;;;;11.77;7.63;;;;;;;;;;5071560;28;20582;-70
2023/12/04 09:19:01;;;;;;;11.88;7.25;;;;;;;;;;5070982;28;20127;-69
2023/12/04 09:21:27;;;;;;;12.55;7.28;;;;;;;;;;5054370;28;20035;-70
2023/12/04 09:23:53;;;;;;;11.75;7.28;;;;;;;;;;5071097;28;20045;-71
2023/12/04 09:26:19;;;;;;;14.20;8.88;;;;;;;;;;5071024;28;20052;-71
2023/12/04 09:28:46;;;;;;;12.55;7.65;;;;;;;;;;5070858;28;20041;-70
2023/12/04 09:31:11;;;;;;;12.65;7.78;;;5.40;1.00;;;;;;5071499;28;20101;-70
2023/12/04 09:33:37;;;;;;;12.93;8.02;;;;;;;;;;5070765;28;20044;-70
2023/12/04 09:36:04;;;;;;;13.38;7.90;;;;;;;;;;5070699;28;20084;-71
2023/12/04 09:38:30;;;;;;;13.07;7.80;;;;;;;;;;5070645;28;20048;-70
2023/12/04 09:40:58;;;;;;;12.65;7.10;;;5.60;1.00;;;;;;5054150;28;20052;-70
2023/12/04 09:43:25;;;;;;;12.32;7.85;;;5.40;1.00;;;;;;5070970;28;20159;-69
2023/12/04 09:45:51;;;;;;;11.57;7.38;;;;;;;;;;5070789;28;20046;-69
2023/12/04 09:48:17;;;;;;;14.20;8.05;;;5.40;1.00;;;;;;5071662;28;20135;-69
2023/12/04 09:50:43;;;;;;;13.85;8.73;;;5.50;1.00;;;;;;5070628;28;20059;-69
2023/12/04 09:53:11;;;;;;;12.98;8.02;;;5.40;1.00;;;;;;5070500;28;20492;-69
2023/12/04 09:55:37;;;;;;;13.05;8.00;;;5.50;1.00;;;;;;5070867;28;20123;-69
2023/12/04 09:58:04;;;;;;;15.02;9.00;;;5.50;1.00;;;;;;5070864;28;20123;-69
2023/12/04 10:00:32;;;;;;;13.68;8.65;;;5.50;1.00;;;;;;5053718;28;20048;-66
2023/12/04 10:02:59;;;;;;;12.77;7.72;;;5.50;1.00;;;;;;5070693;28;20071;-69
2023/12/04 10:05:25;;;;;;;14.60;8.50;;;5.60;1.00;;;;;;5070481;28;20044;-69
2023/12/04 10:07:51;;;;;;;14.02;8.07;;;;;;;;;;5054154;28;20040;-70
2023/12/04 10:10:18;;;;;;;14.40;8.07;;;;;;;;;;5070626;28;20063;-69
2023/12/04 10:12:44;;;;;;;13.10;7.45;;;;;;;;;;5070294;28;20448;-69
2023/12/04 10:15:11;;;;;;;11.80;7.60;;;;;;;;;;5070652;28;20067;-69
2023/12/04 10:17:39;;;;;;;12.13;7.75;;;;;;;;;;5070523;28;20043;-69
2023/12/04 10:20:17;;;;;;;12.32;8.07;;;5.70;1.00;;;;;;5070228;28;20071;-69
2023/12/04 10:22:52;;;;;;;13.13;7.72;;;;;;;;;;5070266;28;20131;-68
2023/12/04 10:25:18;;;;;;;11.82;7.53;;;5.80;1.00;;;;;;5070563;28;20149;-69
2023/12/04 10:27:45;;;;;;;10.50;7.07;;;5.90;1.00;;;;;;5070581;28;20476;-69
2023/12/04 10:30:22;;;;;;;11.75;7.63;;;;;;;;;;5069953;28;20033;-69
2023/12/04 10:32:48;;;;;;;13.05;7.90;;;5.90;1.00;;;;;;5053466;28;20039;-68
2023/12/04 10:35:14;;;;;;;11.00;8.07;;;;;;;;;;5070299;28;20048;-69
2023/12/04 10:37:40;;;;;;;11.20;7.40;;;;;;;;;;5070094;28;20043;-68
2023/12/04 10:40:09;;;;;;;12.13;8.45;;;;;;;;;;5070157;28;20399;-69
2023/12/04 10:42:35;;;;;;;12.88;7.78;;;;;;;;;;5072539;28;20044;-69
2023/12/04 10:45:01;;;;;;;14.05;7.82;;;;;;;;;;5074438;28;20066;-69
2023/12/04 10:47:32;;;;;;;13.00;7.78;;;6.00;1.00;;;;;;5074117;28;20070;-69
2023/12/04 10:49:58;;;;;;;11.55;7.07;;;;;;;;;;5057401;28;20040;-69
2023/12/04 10:52:24;;;;;;;11.50;7.25;;;6.30;1.00;;;;;;5057287;28;20044;-69
2023/12/04 10:54:50;;;;;;;10.82;6.60;;;6.30;1.00;;;;;;5074253;28;20052;-69
2023/12/04 10:57:26;;;;;;;11.38;7.15;;;6.10;1.00;;;;;;5074290;28;20078;-69
2023/12/04 10:59:57;;;;;;;13.15;7.50;;;6.30;1.00;;;;;;5073785;28;20040;-69
2023/12/04 11:02:26;;;;;;;14.20;8.15;;;;;;;;;;5073819;28;20040;-70
2023/12/04 11:04:55;;;;;;;9.88;7.03;;;;;;;;;;5073776;28;20045;-70
2023/12/04 11:07:22;;;;;;;12.50;7.78;;;;;;;;;;5073711;28;20504;-69
2023/12/04 11:09:49;;;;;;;14.63;7.95;;;;;;;;;;5073391;28;20075;-70
2023/12/04 11:12:20;;;;;;;13.18;7.90;;;6.20;1.00;;;;;;5074847;28;20194;-70
2023/12/04 11:14:50;;;;;;;10.43;6.80;;;;;;;;;;5073627;28;20037;-70
2023/12/04 11:17:18;;;;;;;15.23;8.05;;;6.30;1.00;;;;;;5073605;28;20037;-70
2023/12/04 11:19:52;;;;;;;12.80;8.45;;;;;;;;;;5073464;28;20040;-69
2023/12/04 11:22:21;;;;;;;13.70;8.07;;;6.20;1.00;;;;;;5073330;28;20040;-69
2023/12/04 11:24:48;;;;;;;11.65;7.90;;;6.20;1.00;;;;;;5074863;28;20090;-70
2023/12/04 11:27:16;;;;;;;13.93;7.90;;;6.10;1.00;;;;;;5073700;28;20412;-70
2023/12/04 11:29:42;;;;;;;11.95;7.40;;;;;;;;;;5073370;28;20076;-69
2023/12/04 11:32:16;;;;;;;11.93;7.55;;;6.20;1.00;;;;;;5073298;28;20534;-68
2023/12/04 11:34:54;;;;;;;14.93;8.20;;;6.20;1.00;;;;;;5073278;28;20087;-70
2023/12/04 11:37:21;;;;;;;15.35;7.72;;;6.00;1.00;;;;;;5056835;28;20484;-70
2023/12/04 11:39:48;;;;;;;11.05;7.45;;;;;;;;;;5073480;28;20060;-70
2023/12/04 11:42:18;;;;;;;13.40;7.25;;;6.10;1.00;;;;;;5073578;28;20052;-69
2023/12/04 11:44:44;;;;;;;11.35;7.85;;;6.20;1.00;;;;;;5074479;28;20036;-69
2023/12/04 11:47:11;;;;;;;14.63;8.15;;;;;;;;;;5073297;28;20549;-70
2023/12/04 11:49:37;;;;;;;13.27;7.80;;;;;;;;;;5072692;28;20040;-69
2023/12/04 11:52:04;;;;;;;11.93;7.57;;;6.30;1.00;;;;;;5072828;28;20127;-70
2023/12/04 11:55:00;;;;;;;11.80;7.25;;;6.30;1.00;;;;;;5071919;28;20557;-70
2023/12/04 11:57:29;;;;;;;12.48;7.10;;;6.10;1.00;;;;;;5072902;28;20037;-70
2023/12/04 12:00:18;;;;;;;11.80;7.43;;;6.10;1.00;;;;;;5072528;28;20488;-70
2023/12/04 12:02:53;;;;;;;13.20;8.27;;;6.10;1.00;;;;;;5072944;28;20446;-69
2023/12/04 12:05:20;;;;;;;13.45;8.35;;;5.90;1.00;;;;;;5073004;28;20588;-69
2023/12/04 12:07:46;;;;;;;13.13;7.80;;;;;;;;;;5072881;28;20353;-69
2023/12/04 12:10:13;;;;;;;11.30;7.10;;;;;;;;;;5072439;28;20114;-69
2023/12/04 12:12:40;;;;;;;15.68;8.38;;;6.00;1.00;;;;;;5072662;28;20044;-70
2023/12/04 12:15:09;;;;;;;12.38;7.25;;;;;;;;;;5072445;28;20051;-69
2023/12/04 12:17:35;;;;;;;13.27;7.43;;;;;;;;;;5055982;28;20535;-70
2023/12/04 12:20:00;;;;;;;10.85;7.03;;;;;;;;;;5072490;28;20309;-70
2023/12/04 12:22:26;;;;;;;12.00;7.50;;;;;;;;;;5072384;28;20511;-69
2023/12/04 12:24:52;;;;;;;10.20;7.07;;;6.10;1.00;;;;;;5055884;28;20135;-70
2023/12/04 12:27:18;;;;;;;11.52;7.28;;;;;;;;;;5072282;28;20492;-70
2023/12/04 12:29:44;;;;;;;15.82;8.48;;;6.10;1.00;;;;;;5072409;28;20044;-69
2023/12/04 12:32:10;;;;;;;12.88;7.20;;;;;;;;;;5072013;28;20047;-70
2023/12/04 12:34:36;;;;;;;10.68;7.25;;;;;;;;;;5055484;28;20056;-69
2023/12/04 12:37:05;;;;;;;12.13;8.48;;;6.20;1.00;;;;;;5072147;28;20484;-70
2023/12/04 12:39:31;;;;;;;11.40;6.97;;;;;;;;;;5071771;28;20041;-69
2023/12/04 12:41:57;;;;;;;14.18;7.35;;;;;;;;;;5072246;28;20102;-70
2023/12/04 12:44:23;;;;;;;10.88;6.85;;;;;;;;;;5055502;28;20075;-70
2023/12/04 12:46:50;;;;;;;12.57;7.32;;;6.20;1.00;;;;;;5055253;28;20047;-70
2023/12/04 12:49:23;;;;;;;9.90;6.93;;;;;;;;;;5071914;28;20546;-69
2023/12/04 12:51:48;;;;;;;13.50;7.78;;;6.10;1.00;;;;;;5073342;28;20116;-70
2023/12/04 12:54:14;;;;;;;11.45;7.20;;;;;;;;;;5073260;28;20116;-70
2023/12/04 12:56:41;;;;;;;10.98;7.22;;;;;;;;;;5071792;28;20175;-70
2023/12/04 12:59:07;;;;;;;11.85;6.47;;;;;;;;;;5071768;28;20105;-70
2023/12/04 13:01:33;;;;;;;11.15;6.57;;;;;;;;;;5073903;28;20040;-70
2023/12/04 13:03:59;;;;;;;11.75;7.03;;;;;;;;;;5072506;28;20537;-70
2023/12/04 13:06:25;;;;;;;10.48;6.85;;;;;;;;;;5071391;28;20036;-69
2023/12/04 13:08:51;;;;;;;10.38;6.55;;;;;;;;;;5071305;28;20126;-69
2023/12/04 13:11:17;;;;;;;9.60;6.60;;;;;;;;;;5071485;28;20559;-70
2023/12/04 13:13:43;;;;;;;12.07;7.22;;;6.30;1.00;;;;;;5054688;28;20090;-69
2023/12/04 13:16:09;;;;;;;12.43;7.20;;;6.30;1.00;;;;;;5071295;28;20071;-69
2023/12/04 13:18:37;;;;;;;10.70;6.55;;;;;;;;;;5071153;28;20037;-70
2023/12/04 13:21:03;;;;;;;14.13;8.35;;;;;;;;;;5071049;28;20041;-70
2023/12/04 13:23:29;;;;;;;11.07;7.40;;;;;;;;;;5071093;28;20522;-70
2023/12/04 13:25:55;;;;;;;11.30;6.68;;;6.00;1.00;;;;;;5071073;28;20131;-70
2023/12/04 13:28:20;;;;;;;12.15;7.70;;;6.20;1.00;;;;;;5070755;28;20466;-69
2023/12/04 13:30:47;;;;;;;12.38;7.35;;;;;;;;;;5071648;28;20044;-69
2023/12/04 13:33:12;;;;;;;10.18;6.65;;;6.10;1.00;;;;;;5070869;28;20040;-69
2023/12/04 13:35:38;;;;;;;10.57;6.90;;;;;;;;;;5070848;28;20048;-70
2023/12/04 13:38:12;;;;;;;11.43;6.72;;;;;;;;;;5071104;28;20090;-70
2023/12/04 13:40:38;;;;;;;10.15;6.95;;;;;;;;;;5054310;28;20128;-69
2023/12/04 13:45:48;;;;;;;12.40;6.70;;;6.30;1.00;;;;;;5070762;28;20131;-69
2023/12/04 13:48:15;;;;;;;12.45;6.95;;;;;;;;;;5071733;28;20123;-70
2023/12/04 13:50:41;;;;;;;10.68;7.35;;;;;;;;;;5070817;28;20223;-69